createdAt,value
2023-04-09T00:00:47.359Z,99848.44
2023-04-09T00:03:13.933Z,99844.78
2023-04-09T00:05:41.108Z,99847.28
2023-04-09T00:08:08.247Z,99845.47
2023-04-09T00:10:35.018Z,99851.56
2023-04-09T00:13:01.582Z,99849.59
2023-04-09T00:15:31.532Z,99848.66
2023-04-09T00:17:59.116Z,99840.13
2023-04-09T00:20:25.875Z,99846.22
2023-04-09T00:22:53.223Z,99845.47
2023-04-09T00:25:20.150Z,99846.53
2023-04-09T00:27:47.004Z,99841.13
2023-04-09T00:30:13.503Z,99844.66
2023-04-09T00:32:40.151Z,99833.31
2023-04-09T00:35:06.985Z,99844.56
2023-04-09T00:37:33.674Z,99841.06
2023-04-09T00:40:00.269Z,99841.91
2023-04-09T00:42:27.208Z,99834.97
2023-04-09T00:44:53.670Z,99831.53
2023-04-09T00:47:20.209Z,99835.97
2023-04-09T00:49:46.730Z,99840.34
2023-04-09T00:52:19.314Z,99841.31
2023-04-09T00:54:50.454Z,99836.88
2023-04-09T00:57:17.876Z,99834.97
2023-04-09T00:59:47.792Z,99828.81
2023-04-09T01:02:14.346Z,99824.41
2023-04-09T01:04:43.638Z,99824.34
2023-04-09T01:07:20.774Z,99821.69
2023-04-09T01:09:54.356Z,99824.28
2023-04-09T01:12:47.804Z,99830.28
2023-04-09T01:15:22.229Z,99822.19
2023-04-09T01:17:57.704Z,99822.88
2023-04-09T01:20:34.268Z,99833.28
2023-04-09T01:23:03.902Z,99822.53
2023-04-09T01:25:33.718Z,99835.63
2023-04-09T01:28:06.201Z,99835.41
2023-04-09T01:30:33.098Z,99824.66
2023-04-09T01:33:01.020Z,99823.03
2023-04-09T01:35:28.947Z,99815.09
2023-04-09T01:37:58.360Z,99824.81
2023-04-09T01:40:27.784Z,99821.34
2023-04-09T01:42:55.486Z,99820.53
2023-04-09T01:45:23.062Z,99824.06
2023-04-09T01:47:49.812Z,99818.94
2023-04-09T01:50:16.616Z,99819.88
2023-04-09T01:52:43.250Z,99818.09
2023-04-09T01:55:10.122Z,99820.84
2023-04-09T01:57:39.378Z,99828.69
2023-04-09T02:00:07.869Z,99820.41
2023-04-09T02:02:41.376Z,99829.66
2023-04-09T02:05:12.026Z,99838.28
2023-04-09T02:07:54.173Z,99832.41
2023-04-09T02:10:22.455Z,99821.34
2023-04-09T02:12:51.115Z,99819.75
2023-04-09T02:15:23.105Z,99811.19
2023-04-09T02:17:49.530Z,99816.50
2023-04-09T02:20:19.819Z,99822.53
2023-04-09T02:22:47.948Z,99819.75
2023-04-09T02:25:15.653Z,99816.41
2023-04-09T02:27:42.211Z,99816.41
2023-04-09T02:30:12.208Z,99820.59
2023-04-09T02:32:38.750Z,99818.09
2023-04-09T02:35:05.723Z,99809.38
2023-04-09T02:37:32.194Z,99816.09
2023-04-09T02:39:58.626Z,99814.34
2023-04-09T02:42:25.204Z,99809.25
2023-04-09T02:44:51.655Z,99804.13
2023-04-09T02:47:18.132Z,99797.09
2023-04-09T02:49:47.177Z,99790.13
2023-04-09T02:52:13.656Z,99796.31
2023-04-09T02:54:40.340Z,99805.91
2023-04-09T02:57:06.810Z,99795.31
2023-04-09T02:59:34.310Z,99795.97
2023-04-09T03:02:00.905Z,99794.59
2023-04-09T03:04:27.383Z,99807.91
2023-04-09T03:06:53.903Z,99799.41
2023-04-09T03:09:20.413Z,99803.75
2023-04-09T03:11:46.885Z,99803.91
2023-04-09T03:14:13.376Z,99800.03
2023-04-09T03:16:39.888Z,99794.31
2023-04-09T03:19:06.356Z,99794.47
2023-04-09T03:21:33.208Z,99793.75
2023-04-09T03:24:03.827Z,99792.09
2023-04-09T03:26:36.100Z,99788.44
2023-04-09T03:29:03.753Z,99792.66
2023-04-09T03:31:30.710Z,99796.47
2023-04-09T03:33:57.357Z,99793.78
2023-04-09T03:36:23.974Z,99799.13
2023-04-09T03:38:50.724Z,99792.16
2023-04-09T03:41:17.332Z,99787.97
2023-04-09T03:43:43.834Z,99792.31
2023-04-09T03:46:17.632Z,99793.22
2023-04-09T03:48:45.428Z,99790.59
2023-04-09T03:51:13.162Z,99785.38
2023-04-09T03:53:40.461Z,99789.00
2023-04-09T03:56:07.278Z,99788.13
2023-04-09T03:58:34.092Z,99798.66
2023-04-09T04:01:00.995Z,99786.38
2023-04-09T04:03:28.314Z,99796.78
2023-04-09T04:06:00.633Z,99794.16
2023-04-09T04:08:27.097Z,99787.97
2023-04-09T04:10:53.603Z,99794.19
2023-04-09T04:13:20.249Z,99787.16
2023-04-09T04:15:46.787Z,99788.06
2023-04-09T04:18:13.282Z,99800.16
2023-04-09T04:20:41.017Z,99800.19
2023-04-09T04:23:09.766Z,99791.63
2023-04-09T04:25:36.265Z,99795.09
2023-04-09T04:28:02.743Z,99794.25
2023-04-09T04:30:29.222Z,99796.81
2023-04-09T04:32:55.826Z,99799.50
2023-04-09T04:35:25.685Z,99802.28
2023-04-09T04:37:52.236Z,99795.41
2023-04-09T04:40:18.801Z,99798.88
2023-04-09T04:42:45.316Z,99800.66
2023-04-09T04:45:11.813Z,99791.91
2023-04-09T04:47:38.542Z,99797.22
2023-04-09T04:50:06.413Z,99794.63
2023-04-09T04:52:32.917Z,99795.53
2023-04-09T04:54:59.890Z,99795.53
2023-04-09T04:57:26.348Z,99799.94
2023-04-09T04:59:52.863Z,99805.19
2023-04-09T05:02:19.596Z,99801.63
2023-04-09T05:04:46.374Z,99804.25
2023-04-09T05:07:12.810Z,99802.56
2023-04-09T05:09:39.342Z,99807.00
2023-04-09T05:12:05.948Z,99798.97
2023-04-09T05:14:32.469Z,99803.31
2023-04-09T05:16:59.131Z,99800.75
2023-04-09T05:19:25.720Z,99810.44
2023-04-09T05:21:52.275Z,99813.22
2023-04-09T05:24:18.803Z,99817.59
2023-04-09T05:26:45.496Z,99814.97
2023-04-09T05:29:17.298Z,99811.50
2023-04-09T05:31:43.899Z,99811.53
2023-04-09T05:34:10.419Z,99815.06
2023-04-09T05:36:36.857Z,99813.31
2023-04-09T05:39:03.466Z,99813.38
2023-04-09T05:41:29.988Z,99817.78
2023-04-09T05:43:57.447Z,99824.06
2023-04-09T05:46:24.838Z,99828.50
2023-04-09T05:48:51.744Z,99828.50
2023-04-09T05:51:18.311Z,99828.50
2023-04-09T05:53:44.821Z,99834.69
2023-04-09T05:56:18.983Z,99834.66
2023-04-09T05:58:45.517Z,99830.94
2023-04-09T06:01:12.012Z,99832.91
2023-04-09T06:03:38.756Z,99834.47
2023-04-09T06:06:05.571Z,99838.03
2023-04-09T06:08:35.579Z,99829.53
2023-04-09T06:11:02.175Z,99836.56
2023-04-09T06:13:28.715Z,99831.31
2023-04-09T06:15:55.430Z,99837.44
2023-04-09T06:18:23.208Z,99829.56
2023-04-09T06:20:49.681Z,99834.97
2023-04-09T06:23:16.368Z,99829.69
2023-04-09T06:25:42.992Z,99836.06
2023-04-09T06:28:09.452Z,99833.44
2023-04-09T06:30:37.070Z,99837.75
2023-04-09T06:33:03.763Z,99850.03
2023-04-09T06:35:30.293Z,99849.06
2023-04-09T06:37:56.732Z,99842.91
2023-04-09T06:40:23.559Z,99845.69
2023-04-09T06:42:50.329Z,99848.25
2023-04-09T06:45:16.874Z,99840.44
2023-04-09T06:47:43.451Z,99844.84
2023-04-09T06:50:10.307Z,99846.41
2023-04-09T06:52:36.869Z,99849.78
2023-04-09T06:55:03.387Z,99841.94
2023-04-09T06:57:29.816Z,99849.13
2023-04-09T06:59:56.520Z,99846.63
2023-04-09T07:02:23.249Z,99855.59
2023-04-09T07:04:49.958Z,99848.78
2023-04-09T07:07:16.507Z,99844.63
2023-04-09T07:09:43.061Z,99850.78
2023-04-09T07:12:09.500Z,99850.94
2023-04-09T07:14:36.005Z,99845.81
2023-04-09T07:17:02.601Z,99844.88
2023-04-09T07:19:29.572Z,99851.91
2023-04-09T07:21:56.190Z,99851.13
2023-04-09T07:24:22.691Z,99844.88
2023-04-09T07:26:52.085Z,99850.88
2023-04-09T07:29:20.662Z,99846.66
2023-04-09T07:31:47.215Z,99849.13
2023-04-09T07:34:13.653Z,99848.28
2023-04-09T07:36:41.239Z,99846.66
2023-04-09T07:39:07.725Z,99852.19
2023-04-09T07:41:34.195Z,99853.19
2023-04-09T07:44:03.232Z,99850.56
2023-04-09T07:46:29.875Z,99857.72
2023-04-09T07:48:56.608Z,99850.88
2023-04-09T07:51:23.339Z,99847.56
2023-04-09T07:53:49.827Z,99855.50
2023-04-09T07:56:16.356Z,99859.81
2023-04-09T07:58:43.031Z,99855.47
2023-04-09T08:01:09.522Z,99849.63
2023-04-09T08:03:36.798Z,99856.66
2023-04-09T08:06:03.817Z,99855.97
2023-04-09T08:08:30.964Z,99855.09
2023-04-09T08:10:57.491Z,99851.75
2023-04-09T08:13:25.324Z,99856.31
2023-04-09T08:15:52.336Z,99857.09
2023-04-09T08:18:18.922Z,99858.09
2023-04-09T08:20:45.668Z,99848.34
2023-04-09T08:23:12.642Z,99855.13
2023-04-09T08:25:42.425Z,99849.28
2023-04-09T08:28:09.027Z,99848.53
2023-04-09T08:30:35.571Z,99854.66
2023-04-09T08:33:02.540Z,99852.84
2023-04-09T08:35:31.918Z,99857.28
2023-04-09T08:37:59.522Z,99854.13
2023-04-09T08:40:26.014Z,99851.81
2023-04-09T08:42:58.595Z,99852.97
2023-04-09T08:45:25.136Z,99852.78
2023-04-09T08:47:52.903Z,99855.34
2023-04-09T08:50:20.598Z,99856.00
2023-04-09T08:52:49.902Z,99857.97
2023-04-09T08:55:16.620Z,99851.09
2023-04-09T08:57:43.573Z,99851.09
2023-04-09T09:00:10.709Z,99846.06
2023-04-09T09:02:38.671Z,99845.44
2023-04-09T09:05:05.727Z,99848.38
2023-04-09T09:07:34.199Z,99841.31
2023-04-09T09:10:05.092Z,99848.66
2023-04-09T09:12:32.231Z,99846.06
2023-04-09T09:14:58.779Z,99851.34
2023-04-09T09:17:25.501Z,99849.53
2023-04-09T09:19:52.140Z,99852.44
2023-04-09T09:22:18.628Z,99856.41
2023-04-09T09:24:50.347Z,99851.06
2023-04-09T09:27:36.613Z,99851.16
2023-04-09T09:30:05.602Z,99854.66
2023-04-09T09:32:35.211Z,99853.81
2023-04-09T09:35:09.168Z,99846.03
2023-04-09T09:37:35.712Z,99838.41
2023-04-09T09:40:02.469Z,99849.66
2023-04-09T09:42:29.040Z,99848.03
2023-04-09T09:44:56.018Z,99848.78
2023-04-09T09:47:23.452Z,99850.59
2023-04-09T09:49:51.350Z,99846.47
2023-04-09T09:52:26.903Z,99849.34
2023-04-09T09:54:55.807Z,99841.69
2023-04-09T09:57:26.074Z,99843.53
2023-04-09T10:00:04.268Z,99838.31
2023-04-09T10:02:40.732Z,99850.06
2023-04-09T10:05:09.174Z,99836.88
2023-04-09T10:07:37.395Z,99846.78
2023-04-09T10:10:06.121Z,99847.53
2023-04-09T10:12:33.926Z,99847.56
2023-04-09T10:15:04.674Z,99838.09
2023-04-09T10:17:32.298Z,99843.09
2023-04-09T10:20:11.645Z,99844.69
2023-04-09T10:22:39.201Z,99833.69
2023-04-09T10:25:06.682Z,99839.84
2023-04-09T10:27:33.166Z,99828.38
2023-04-09T10:30:02.264Z,99836.31
2023-04-09T10:32:36.115Z,99834.66
2023-04-09T10:35:04.166Z,99825.13
2023-04-09T10:37:31.819Z,99831.25
2023-04-09T10:39:58.629Z,99820.47
2023-04-09T10:42:32.959Z,99820.84
2023-04-09T10:45:12.269Z,99819.88
2023-04-09T10:47:40.846Z,99813.72
2023-04-09T10:50:26.968Z,99827.66
2023-04-09T10:52:56.552Z,99820.97
2023-04-09T10:55:42.537Z,99814.50
2023-04-09T10:58:13.208Z,99810.06
2023-04-09T11:00:42.823Z,99810.09
2023-04-09T11:03:09.696Z,99806.41
2023-04-09T11:05:40.355Z,99805.88
2023-04-09T11:08:12.342Z,99811.81
2023-04-09T11:10:40.959Z,99814.22
2023-04-09T11:13:12.203Z,99804.94
2023-04-09T11:15:39.152Z,99802.09
2023-04-09T11:18:09.781Z,99792.16
2023-04-09T11:20:36.504Z,99803.53
2023-04-09T11:23:03.366Z,99801.72
2023-04-09T11:25:31.750Z,99799.72
2023-04-09T11:27:59.081Z,99795.28
2023-04-09T11:30:26.221Z,99795.44
2023-04-09T11:32:53.039Z,99789.25
2023-04-09T11:35:22.496Z,99797.53
2023-04-09T11:37:53.010Z,99800.84
2023-04-09T11:40:20.573Z,99799.84
2023-04-09T11:42:50.082Z,99795.44
2023-04-09T11:45:17.458Z,99790.81
2023-04-09T11:47:45.360Z,99783.59
2023-04-09T11:50:13.465Z,99789.47
2023-04-09T11:52:41.396Z,99782.66
2023-04-09T11:55:11.524Z,99787.06
2023-04-09T11:57:44.434Z,99778.31
2023-04-09T12:00:12.755Z,99784.75
2023-04-09T12:02:46.294Z,99783.84
2023-04-09T12:05:25.477Z,99782.06
2023-04-09T12:07:57.175Z,99780.19
2023-04-09T12:10:31.782Z,99778.94
2023-04-09T12:13:07.406Z,99771.91
2023-04-09T12:15:36.717Z,99773.78
2023-04-09T12:18:03.795Z,99762.28
2023-04-09T12:20:36.251Z,99761.53
2023-04-09T12:23:07.077Z,99758.03
2023-04-09T12:25:36.901Z,99755.47
2023-04-09T12:28:10.173Z,99759.81
2023-04-09T12:30:36.799Z,99757.22
2023-04-09T12:33:04.573Z,99743.16
2023-04-09T12:35:31.759Z,99741.38
2023-04-09T12:37:59.405Z,99743.84
2023-04-09T12:40:26.403Z,99739.47
2023-04-09T12:42:53.136Z,99741.41
2023-04-09T12:45:20.354Z,99737.00
2023-04-09T12:47:47.189Z,99744.03
2023-04-09T12:50:17.487Z,99741.41
2023-04-09T12:52:44.316Z,99736.97
2023-04-09T12:55:11.922Z,99732.53
2023-04-09T12:57:39.949Z,99727.25
2023-04-09T13:00:07.823Z,99724.56
2023-04-09T13:02:35.047Z,99724.63
2023-04-09T13:05:02.003Z,99727.34
2023-04-09T13:07:29.498Z,99714.03
2023-04-09T13:09:56.944Z,99722.03
2023-04-09T13:12:24.107Z,99709.66
2023-04-09T13:14:53.569Z,99711.38
2023-04-09T13:17:20.107Z,99709.66
2023-04-09T13:19:46.637Z,99709.63
2023-04-09T13:22:13.104Z,99708.75
2023-04-09T13:24:39.646Z,99713.22
2023-04-09T13:27:09.236Z,99699.94
2023-04-09T13:29:36.091Z,99702.63
2023-04-09T13:32:07.063Z,99696.47
2023-04-09T13:34:35.058Z,99697.31
2023-04-09T13:37:04.950Z,99701.78
2023-04-09T13:39:31.442Z,99687.63
2023-04-09T13:41:58.032Z,99687.59
2023-04-09T13:44:25.180Z,99699.94
2023-04-09T13:46:51.712Z,99693.66
2023-04-09T13:49:18.290Z,99691.81
2023-04-09T13:51:44.828Z,99686.47
2023-04-09T13:54:11.602Z,99685.59
2023-04-09T13:56:39.349Z,99685.66
2023-04-09T13:59:06.420Z,99675.97
2023-04-09T14:01:34.325Z,99675.16
2023-04-09T14:04:00.989Z,99676.97
2023-04-09T14:06:27.557Z,99683.09
2023-04-09T14:08:54.442Z,99683.88
2023-04-09T14:11:21.202Z,99680.34
2023-04-09T14:13:48.400Z,99680.38
2023-04-09T14:16:14.915Z,99679.53
2023-04-09T14:18:41.695Z,99682.97
2023-04-09T14:21:10.153Z,99681.22
2023-04-09T14:23:37.346Z,99674.19
2023-04-09T14:26:04.841Z,99675.06
2023-04-09T14:28:33.385Z,99683.00
2023-04-09T14:31:00.226Z,99684.72
2023-04-09T14:33:26.998Z,99683.88
2023-04-09T14:35:53.536Z,99683.00
2023-04-09T14:38:20.122Z,99673.19
2023-04-09T14:40:46.573Z,99683.00
2023-04-09T14:43:16.599Z,99674.09
2023-04-09T14:45:43.163Z,99671.44
2023-04-09T14:48:09.668Z,99674.03
2023-04-09T14:50:36.647Z,99669.59
2023-04-09T14:53:04.468Z,99673.13
2023-04-09T14:55:31.136Z,99670.44
2023-04-09T14:57:59.574Z,99664.22
2023-04-09T15:00:26.083Z,99667.75
2023-04-09T15:02:52.826Z,99677.38
2023-04-09T15:05:19.529Z,99672.06
2023-04-09T15:07:46.129Z,99673.81
2023-04-09T15:10:15.684Z,99672.94
2023-04-09T15:12:42.173Z,99676.47
2023-04-09T15:15:09.670Z,99680.00
2023-04-09T15:17:36.747Z,99675.59
2023-04-09T15:20:04.173Z,99675.66
2023-04-09T15:22:30.756Z,99670.44
2023-04-09T15:25:00.617Z,99670.47
2023-04-09T15:27:27.051Z,99673.16
2023-04-09T15:29:53.547Z,99666.06
2023-04-09T15:32:20.056Z,99664.28
2023-04-09T15:34:46.651Z,99666.94
2023-04-09T15:37:13.107Z,99653.63
2023-04-09T15:39:39.615Z,99653.69
2023-04-09T15:42:07.937Z,99646.59
2023-04-09T15:44:36.288Z,99659.81
2023-04-09T15:47:02.831Z,99659.75
2023-04-09T15:49:32.559Z,99655.34
2023-04-09T15:51:59.010Z,99657.09
2023-04-09T15:54:25.588Z,99661.56
2023-04-09T15:56:55.270Z,99665.94
2023-04-09T15:59:22.888Z,99669.47
2023-04-09T16:01:49.485Z,99657.09
2023-04-09T16:04:16.046Z,99655.31
2023-04-09T16:06:42.555Z,99652.63
2023-04-09T16:09:09.071Z,99652.63
2023-04-09T16:11:38.135Z,99655.31
2023-04-09T16:14:04.623Z,99657.97
2023-04-09T16:16:31.189Z,99660.53
2023-04-09T16:18:57.705Z,99655.13
2023-04-09T16:21:24.234Z,99650.66
2023-04-09T16:23:50.747Z,99658.59
2023-04-09T16:26:17.213Z,99654.19
2023-04-09T16:28:43.646Z,99646.25
2023-04-09T16:31:10.270Z,99648.84
2023-04-09T16:33:36.752Z,99654.09
2023-04-09T16:36:03.499Z,99647.81
2023-04-09T16:38:31.109Z,99656.63
2023-04-09T16:40:57.638Z,99644.28
2023-04-09T16:43:25.322Z,99658.41
2023-04-09T16:45:52.286Z,99640.75
2023-04-09T16:48:18.879Z,99645.19
2023-04-09T16:50:45.475Z,99636.31
2023-04-09T16:53:11.943Z,99638.94
2023-04-09T16:55:38.471Z,99639.78
2023-04-09T16:58:04.965Z,99637.09
2023-04-09T17:00:31.486Z,99634.38
2023-04-09T17:02:58.201Z,99629.06
2023-04-09T17:05:25.056Z,99629.94
2023-04-09T17:07:52.449Z,99637.78
2023-04-09T17:10:19.499Z,99628.91
2023-04-09T17:12:46.063Z,99625.31
2023-04-09T17:15:12.733Z,99626.09
2023-04-09T17:17:43.892Z,99623.41
2023-04-09T17:20:11.264Z,99630.38
2023-04-09T17:22:39.252Z,99634.72
2023-04-09T17:25:06.144Z,99641.69
2023-04-09T17:27:32.714Z,99631.88
2023-04-09T17:29:59.194Z,99637.16
2023-04-09T17:32:26.033Z,99631.81
2023-04-09T17:34:52.597Z,99643.19
2023-04-09T17:37:19.835Z,99641.38
2023-04-09T17:39:46.402Z,99643.06
2023-04-09T17:42:16.397Z,99644.78
2023-04-09T17:44:43.806Z,99636.72
2023-04-09T17:47:11.561Z,99643.69
2023-04-09T17:49:39.134Z,99640.16
2023-04-09T17:52:07.382Z,99646.31
2023-04-09T17:54:34.728Z,99648.88
2023-04-09T17:57:04.084Z,99644.34
2023-04-09T17:59:31.220Z,99638.09
2023-04-09T18:01:57.910Z,99651.31
2023-04-09T18:04:24.996Z,99652.09
2023-04-09T18:06:52.360Z,99655.53
2023-04-09T18:09:19.213Z,99659.78
2023-04-09T18:11:46.260Z,99655.25
2023-04-09T18:14:12.824Z,99656.03
2023-04-09T18:16:39.473Z,99659.47
2023-04-09T18:19:07.279Z,99652.38
2023-04-09T18:21:36.529Z,99655.91
2023-04-09T18:24:03.658Z,99650.63
2023-04-09T18:26:30.801Z,99650.56
2023-04-09T18:29:00.161Z,99653.94
2023-04-09T18:31:27.874Z,99659.09
2023-04-09T18:33:54.453Z,99670.47
2023-04-09T18:36:20.921Z,99665.97
2023-04-09T18:38:47.411Z,99671.09
2023-04-09T18:41:22.315Z,99672.78
2023-04-09T18:43:48.903Z,99674.47
2023-04-09T18:46:15.448Z,99675.44
2023-04-09T18:48:43.370Z,99670.03
2023-04-09T18:51:10.625Z,99670.88
2023-04-09T18:53:37.179Z,99669.97
2023-04-09T18:56:03.868Z,99671.72
2023-04-09T18:58:30.453Z,99669.09
2023-04-09T19:00:57.369Z,99673.34
2023-04-09T19:03:24.153Z,99677.66
2023-04-09T19:05:51.687Z,99683.00
2023-04-09T19:08:18.165Z,99687.34
2023-04-09T19:10:47.398Z,99684.59
2023-04-09T19:13:13.879Z,99674.91
2023-04-09T19:15:40.366Z,99675.66
2023-04-09T19:18:06.936Z,99679.97
2023-04-09T19:20:33.494Z,99676.44
2023-04-09T19:22:59.997Z,99675.50
2023-04-09T19:25:27.141Z,99675.47
2023-04-09T19:27:54.260Z,99685.13
2023-04-09T19:30:24.713Z,99688.59
2023-04-09T19:32:52.141Z,99690.34
2023-04-09T19:35:18.709Z,99690.22
2023-04-09T19:37:45.244Z,99687.50
2023-04-09T19:40:11.992Z,99679.47
2023-04-09T19:42:38.577Z,99678.50
2023-04-09T19:45:05.662Z,99672.28
2023-04-09T19:47:32.265Z,99672.16
2023-04-09T19:49:58.749Z,99667.72
2023-04-09T19:52:25.376Z,99662.41
2023-04-09T19:54:58.518Z,99657.09
2023-04-09T19:57:26.524Z,99665.72
2023-04-09T19:59:53.968Z,99658.63
2023-04-09T20:02:20.589Z,99659.56
2023-04-09T20:04:47.216Z,99663.06
2023-04-09T20:07:14.233Z,99660.44
2023-04-09T20:09:44.899Z,99662.13
2023-04-09T20:12:11.319Z,99657.72
2023-04-09T20:14:40.755Z,99654.09
2023-04-09T20:17:15.069Z,99649.66
2023-04-09T20:19:41.781Z,99648.72
2023-04-09T20:22:08.294Z,99653.91
2023-04-09T20:24:35.382Z,99653.81
2023-04-09T20:27:02.088Z,99645.03
2023-04-09T20:29:28.622Z,99648.38
2023-04-09T20:31:55.252Z,99647.13
2023-04-09T20:34:26.622Z,99652.03
2023-04-09T20:36:58.038Z,99657.66
2023-04-09T20:39:26.865Z,99660.06
2023-04-09T20:41:55.010Z,99661.41
2023-04-09T20:44:21.478Z,99656.91
2023-04-09T20:46:52.829Z,99658.00
2023-04-09T20:49:22.583Z,99645.03
2023-04-09T20:51:49.924Z,99652.25
2023-04-09T20:54:18.028Z,99650.31
2023-04-09T20:56:44.719Z,99650.38
2023-04-09T20:59:11.861Z,99645.13
2023-04-09T21:01:38.471Z,99648.59
2023-04-09T21:04:05.143Z,99652.97
2023-04-09T21:06:31.764Z,99660.47
2023-04-09T21:09:03.020Z,99656.47
2023-04-09T21:11:29.800Z,99658.50
2023-04-09T21:13:58.919Z,99655.25
2023-04-09T21:16:27.193Z,99658.81
2023-04-09T21:18:57.148Z,99657.97
2023-04-09T21:21:23.979Z,99659.63
2023-04-09T21:23:50.593Z,99651.78
2023-04-09T21:26:17.113Z,99657.22
2023-04-09T21:28:43.948Z,99657.34
2023-04-09T21:31:17.132Z,99653.88
2023-04-09T21:33:43.676Z,99652.84
2023-04-09T21:36:16.547Z,99653.63
2023-04-09T21:38:43.063Z,99658.69
2023-04-09T21:41:09.710Z,99655.81
2023-04-09T21:43:38.176Z,99657.53
2023-04-09T21:46:04.974Z,99655.13
2023-04-09T21:48:31.418Z,99645.94
2023-04-09T21:50:58.401Z,99647.81
2023-04-09T21:53:26.627Z,99652.66
2023-04-09T21:55:53.185Z,99652.16
2023-04-09T21:58:32.329Z,99650.78
2023-04-09T22:00:58.924Z,99644.81
2023-04-09T22:03:26.043Z,99642.44
2023-04-09T22:05:52.716Z,99636.53
2023-04-09T22:08:19.202Z,99636.72
2023-04-09T22:10:45.651Z,99635.84
2023-04-09T22:13:14.964Z,99643.81
2023-04-09T22:15:41.860Z,99642.16
2023-04-09T22:18:08.988Z,99636.16
2023-04-09T22:20:36.152Z,99636.13
2023-04-09T22:23:02.741Z,99641.47
2023-04-09T22:25:34.801Z,99638.81
2023-04-09T22:28:01.356Z,99640.59
2023-04-09T22:30:27.982Z,99641.59
2023-04-09T22:32:54.565Z,99639.84
2023-04-09T22:35:21.189Z,99635.47
2023-04-09T22:37:47.790Z,99642.53
2023-04-09T22:40:19.941Z,99640.84
2023-04-09T22:42:47.079Z,99642.63
2023-04-09T22:45:14.163Z,99637.41
2023-04-09T22:47:40.868Z,99631.19
2023-04-09T22:50:08.261Z,99632.84
2023-04-09T22:52:34.746Z,99637.28
2023-04-09T22:55:02.024Z,99631.06
2023-04-09T22:57:30.249Z,99638.97
2023-04-09T23:00:00.048Z,99639.84
2023-04-09T23:02:27.256Z,99635.38
2023-04-09T23:04:57.683Z,99638.94
2023-04-09T23:07:34.510Z,99633.59
2023-04-09T23:10:01.762Z,99638.00
2023-04-09T23:12:28.230Z,99634.56
2023-04-09T23:14:54.717Z,99639.97
2023-04-09T23:17:22.634Z,99647.94
2023-04-09T23:19:49.148Z,99645.22
2023-04-09T23:22:15.854Z,99645.19
2023-04-09T23:24:42.366Z,99641.63
2023-04-09T23:27:08.829Z,99640.75
2023-04-09T23:29:35.342Z,99641.72
2023-04-09T23:32:06.313Z,99642.69
2023-04-09T23:34:32.793Z,99635.69
2023-04-09T23:36:59.684Z,99632.19
2023-04-09T23:39:26.179Z,99622.53
2023-04-09T23:41:52.871Z,99634.09
2023-04-09T23:44:19.429Z,99634.19
2023-04-09T23:46:46.660Z,99617.56
2023-04-09T23:49:13.225Z,99621.06
2023-04-09T23:51:39.686Z,99621.91
2023-04-09T23:54:06.899Z,99615.81
2023-04-09T23:56:42.360Z,99605.16
2023-04-09T23:59:12.300Z,99614.78
